Time;durP1;ratioP1;P1;durP2;ratioP2;P2;SDS_P1;SDS_P2;PMS_P1;PMS_P2;Temp;Humidity;BMP_temperature;BMP_pressure;BME280_temperature;BME280_humidity;BME280_pressure;Samples;Min_cycle;Max_cycle;Signal;HPM_P1;HPM_P2
2022/07/09 05:20:10;;;;;;;2.13;0.90;;;;;;;15.23;100.00;99304.25;15300453;19;20039;-84
2022/07/09 05:25:19;;;;;;;1.63;0.73;;;;;;;15.31;100.00;99311.53;15304240;19;20014;-86
2022/07/09 05:30:25;;;;;;;2.00;0.77;;;;;;;15.35;100.00;99308.31;15299687;19;20027;-84
2022/07/09 05:35:32;;;;;;;3.08;1.00;;;;;;;15.40;100.00;99310.53;15295401;19;20011;-83
2022/07/09 05:40:37;;;;;;;2.33;0.90;;;;;;;15.43;100.00;99307.47;15298512;19;20074;-83
2022/07/09 05:45:48;;;;;;;1.92;0.80;;;;;;;15.51;100.00;99301.19;15305120;19;20034;-84
2022/07/09 05:50:57;;;;;;;3.30;1.05;;;;;;;15.58;100.00;99299.50;15291945;19;20007;-82
2022/07/09 05:56:03;;;;;;;3.85;1.02;;;;;;;15.64;100.00;99293.34;15292811;19;20487;-82
2022/07/09 06:01:08;;;;;;;1.42;0.80;;;;;;;15.70;100.00;99289.94;15300324;19;20002;-82
2022/07/09 06:06:16;;;;;;;1.73;0.80;;;;;;;15.78;100.00;99293.66;15297902;19;20018;-81
2022/07/09 06:11:21;;;;;;;3.22;1.13;;;;;;;15.87;100.00;99306.25;15302012;19;20003;-81
2022/07/09 06:16:26;;;;;;;3.67;0.90;;;;;;;15.97;100.00;99312.31;15295232;19;20014;-81
2022/07/09 06:21:34;;;;;;;2.40;0.93;;;;;;;16.10;100.00;99303.63;15297003;19;20358;-81
2022/07/09 06:26:39;;;;;;;2.42;1.00;;;;;;;16.23;100.00;99299.50;15311230;19;20025;-82
2022/07/09 06:31:44;;;;;;;4.55;1.00;;;;;;;16.29;100.00;99302.34;15305145;19;20011;-81
2022/07/09 06:36:52;;;;;;;3.20;1.10;;;;;;;16.39;100.00;99290.41;15305780;19;20459;-81
2022/07/09 06:41:57;;;;;;;4.40;1.20;;;;;;;16.40;100.00;99283.97;15312976;19;20497;-81
2022/07/09 06:47:02;;;;;;;2.80;0.95;;;;;;;16.47;100.00;99284.94;15307832;19;20010;-81
2022/07/09 06:52:10;;;;;;;3.38;1.05;;;;;;;16.55;100.00;99279.44;15305524;19;20657;-82
2022/07/09 06:57:16;;;;;;;1.88;1.10;;;;;;;16.66;100.00;99282.78;14541386;19;10000747;-81
2022/07/09 07:02:21;;;;;;;2.70;0.90;;;;;;;16.72;100.00;99276.63;15295520;19;20010;-80
2022/07/09 07:07:28;;;;;;;1.30;0.85;;;;;;;16.78;100.00;99275.88;15299056;19;20046;-81
2022/07/09 07:12:33;;;;;;;2.70;0.90;;;;;;;16.82;100.00;99273.69;15299197;19;20019;-82
2022/07/09 07:17:41;;;;;;;2.95;1.08;;;;;;;16.81;100.00;99275.53;15302184;19;20015;-81
2022/07/09 07:22:48;;;;;;;3.08;0.90;;;;;;;16.91;100.00;99261.69;15300977;19;20045;-82
2022/07/09 07:27:53;;;;;;;3.08;1.08;;;;;;;17.00;100.00;99257.91;15303206;19;20539;-81
2022/07/09 07:32:58;;;;;;;4.32;1.00;;;;;;;17.00;100.00;99257.03;15301496;19;20010;-81
2022/07/09 07:38:06;;;;;;;3.45;1.30;;;;;;;17.03;100.00;99256.69;15308906;19;20414;-81
2022/07/09 07:43:13;;;;;;;2.85;1.08;;;;;;;17.04;100.00;99252.94;15294002;19;20121;-81
2022/07/09 07:48:18;;;;;;;2.78;1.00;;;;;;;17.01;100.00;99248.72;15300678;19;20013;-80
2022/07/09 07:53:25;;;;;;;3.92;1.00;;;;;;;17.10;100.00;99252.22;15295820;19;20039;-81
2022/07/09 07:58:31;;;;;;;2.28;1.02;;;;;;;17.09;100.00;99245.91;15296322;19;20014;-81
2022/07/09 08:03:36;;;;;;;2.53;0.90;;;;;;;17.19;100.00;99239.34;15298202;19;20010;-81
2022/07/09 08:08:44;;;;;;;3.80;1.00;;;;;;;17.28;100.00;99232.84;15298228;19;20494;-82
2022/07/09 08:13:49;;;;;;;2.35;0.70;;;;;;;17.30;100.00;99238.09;15302400;19;20010;-82
2022/07/09 08:18:54;;;;;;;1.75;0.80;;;;;;;17.33;100.00;99224.09;15310016;19;20011;-81
2022/07/09 08:24:04;;;;;;;2.55;0.90;;;;;;;17.35;100.00;99232.91;15321310;19;20007;-81
2022/07/09 08:29:09;;;;;;;2.05;0.90;;;;;;;17.22;100.00;99234.41;15319262;19;20045;-81
2022/07/09 08:34:14;;;;;;;2.28;0.98;;;;;;;17.22;100.00;99237.16;15297606;19;20002;-82
2022/07/09 08:39:22;;;;;;;6.32;0.82;;;;;;;17.17;100.00;99245.00;15309115;19;20006;-81
2022/07/09 08:44:31;;;;;;;9.13;1.10;;;;;;;17.06;100.00;99254.44;15305988;19;20019;-80
2022/07/09 08:49:36;;;;;;;7.15;1.20;;;;;;;16.87;100.00;99258.50;15307584;19;20002;-81
2022/07/09 08:54:46;;;;;;;4.35;1.38;;;;;;;16.44;100.00;99275.25;15306146;19;20006;-80
2022/07/09 08:59:51;;;;;;;3.88;1.40;;;;;;;16.28;100.00;99287.06;15305205;19;20010;-80
2022/07/09 09:04:57;;;;;;;5.47;1.63;;;;;;;16.12;100.00;99298.00;15303432;19;20011;-81
2022/07/09 09:10:06;;;;;;;5.82;2.00;;;;;;;16.11;100.00;99308.00;15306767;19;20732;-81
2022/07/09 09:15:11;;;;;;;5.18;2.17;;;;;;;15.99;100.00;99307.56;15299278;19;20010;-82
2022/07/09 09:20:17;;;;;;;5.07;2.42;;;;;;;15.91;100.00;99317.59;15307358;19;20002;-82
2022/07/09 09:25:25;;;;;;;3.53;2.30;;;;;;;15.97;100.00;99325.91;15308136;19;20062;-82
2022/07/09 09:30:32;;;;;;;3.65;2.45;;;;;;;16.18;100.00;99330.78;15312515;19;20018;-81
2022/07/09 09:35:44;;;;;;;3.03;1.23;;;;;;;16.18;100.00;99319.03;15311625;19;20031;-82
2022/07/09 09:40:51;;;;;;;1.17;0.70;;;;;;;16.01;100.00;99289.22;15303933;19;20467;-82
2022/07/09 09:46:02;;;;;;;1.00;0.60;;;;;;;15.99;100.00;99302.13;15294663;19;20021;-81
2022/07/09 09:51:08;;;;;;;2.63;1.20;;;;;;;15.96;100.00;99299.75;15306614;19;20348;-81
2022/07/09 09:56:16;;;;;;;1.67;1.35;;;;;;;16.01;100.00;99307.38;15300742;19;20015;-82
2022/07/09 10:01:21;;;;;;;1.85;1.60;;;;;;;16.11;100.00;99307.19;15303403;19;20010;-82
2022/07/09 10:06:27;;;;;;;2.60;1.55;;;;;;;16.14;100.00;99312.28;15306193;19;20475;-82
2022/07/09 10:11:44;;;;;;;1.98;1.63;;;;;;;16.27;100.00;99304.41;15327286;19;20010;-82
2022/07/09 10:16:49;;;;;;;3.75;1.30;;;;;;;16.38;100.00;99308.59;15298565;19;20011;-82
2022/07/09 10:21:56;;;;;;;2.30;1.30;;;;;;;16.52;100.00;99289.84;15296690;19;20043;-82
2022/07/09 10:27:09;;;;;;;2.70;1.48;;;;;;;16.73;100.00;99279.16;15299111;19;20002;-82
2022/07/09 10:32:27;;;;;;;1.25;0.90;;;;;;;17.00;100.00;99262.50;15298791;19;20780;-83
2022/07/09 10:37:43;;;;;;;1.80;1.03;;;;;;;17.26;100.00;99251.22;15297938;19;20041;-82
2022/07/09 10:43:02;;;;;;;1.95;1.10;;;;;;;17.46;100.00;99240.66;15291981;19;20649;-82
2022/07/09 10:48:09;;;;;;;1.25;0.95;;;;;;;17.64;100.00;99250.34;15300580;19;20011;-83
2022/07/09 10:53:14;;;;;;;2.97;1.10;;;;;;;17.75;100.00;99238.13;15310488;19;20034;-83
2022/07/09 10:58:23;;;;;;;2.38;1.20;;;;;;;17.76;100.00;99218.84;15310741;19;20014;-82
2022/07/09 11:03:35;;;;;;;2.15;1.17;;;;;;;17.71;100.00;99218.56;15306996;19;20010;-82
2022/07/09 11:08:40;;;;;;;2.85;1.50;;;;;;;17.62;100.00;99209.66;15269825;19;20019;-75
2022/07/09 11:13:54;;;;;;;2.17;1.38;;;;;;;17.57;100.00;99212.09;15264103;19;20065;-76
2022/07/09 11:19:00;;;;;;;2.00;1.30;;;;;;;17.61;100.00;99223.44;15268181;19;20847;-76
2022/07/09 11:24:05;;;;;;;1.63;1.02;;;;;;;17.61;100.00;99198.94;15265498;19;20033;-76
2022/07/09 11:29:13;;;;;;;1.80;0.80;;;;;;;17.57;100.00;99193.00;15268908;19;20846;-76
2022/07/09 11:34:18;;;;;;;2.38;0.90;;;;;;;17.73;100.00;99188.41;15262480;19;20023;-76
2022/07/09 11:39:25;;;;;;;1.17;0.70;;;;;;;17.84;100.00;99179.75;15269446;19;20006;-76
2022/07/09 11:44:35;;;;;;;1.40;0.80;;;;;;;17.93;100.00;99169.59;15265796;19;20363;-75
2022/07/09 11:49:41;;;;;;;0.93;0.80;;;;;;;17.89;100.00;99171.84;15268169;19;20011;-76
2022/07/09 11:54:57;;;;;;;1.95;0.73;;;;;;;17.91;100.00;99158.03;15263765;19;20033;-76
2022/07/09 12:00:11;;;;;;;1.27;0.60;;;;;;;18.01;100.00;99145.81;15276171;19;20014;-78
2022/07/09 12:05:29;;;;;;;1.25;0.70;;;;;;;17.93;100.00;99137.72;15329231;19;20018;-78
2022/07/09 12:10:35;;;;;;;1.05;0.60;;;;;;;18.02;100.00;99130.31;15298010;19;20510;-76
2022/07/09 12:15:43;;;;;;;1.38;0.70;;;;;;;18.18;100.00;99127.31;15260687;19;20030;-76
2022/07/09 12:20:48;;;;;;;3.03;0.68;;;;;;;18.34;100.00;99122.66;15265307;19;20079;-77
2022/07/09 12:25:54;;;;;;;1.85;0.50;;;;;;;18.42;100.00;99108.88;15260995;19;20011;-77
2022/07/09 12:31:02;;;;;;;1.10;0.50;;;;;;;18.47;100.00;99111.03;15266922;19;20011;-77
2022/07/09 12:36:07;;;;;;;1.08;0.65;;;;;;;18.59;100.00;99111.34;15318295;19;20003;-76
2022/07/09 12:41:12;;;;;;;1.38;0.40;;;;;;;18.72;100.00;99095.09;15287056;19;20018;-77
2022/07/09 12:46:20;;;;;;;0.90;0.50;;;;;;;19.11;100.00;99075.66;15256749;19;20514;-77
2022/07/09 12:51:25;;;;;;;1.15;0.60;;;;;;;19.38;100.00;99066.53;15255739;19;20082;-77
2022/07/09 12:56:30;;;;;;;2.28;0.50;;;;;;;19.70;100.00;99055.94;15257795;19;20010;-77
2022/07/09 13:01:58;;;;;;;0.90;0.50;;;;;;;20.00;100.00;99044.72;15261783;19;20014;-77
2022/07/09 13:07:05;;;;;;;0.90;0.50;;;;;;;20.15;100.00;99030.00;15273824;19;20389;-77
2022/07/09 13:12:10;;;;;;;0.88;0.50;;;;;;;20.42;100.00;99036.34;15278740;19;20822;-77
2022/07/09 13:17:18;;;;;;;1.00;0.50;;;;;;;20.63;100.00;99018.84;15282426;19;20352;-77
2022/07/09 13:22:35;;;;;;;1.38;0.30;;;;;;;20.83;100.00;99007.03;15268576;19;20020;-77
2022/07/09 13:27:40;;;;;;;5.03;0.43;;;;;;;21.28;100.00;98991.72;15280323;19;20487;-78
2022/07/09 13:32:48;;;;;;;2.13;0.40;;;;;;;21.51;100.00;98983.00;15286128;19;20053;-78
2022/07/09 13:37:53;;;;;;;1.65;0.40;;;;;;;21.67;100.00;98989.88;15279131;19;20033;-78
2022/07/09 13:42:58;;;;;;;0.75;0.47;;;;;;;21.45;100.00;98971.00;15275763;19;20010;-77
2022/07/09 13:48:07;;;;;;;1.55;0.40;;;;;;;21.44;100.00;98972.06;15276381;19;20038;-77
2022/07/09 13:53:12;;;;;;;1.02;0.32;;;;;;;21.36;100.00;98962.19;15267440;19;20251;-77
2022/07/09 13:58:17;;;;;;;2.22;0.30;;;;;;;21.35;100.00;98963.25;15275373;19;20002;-76
2022/07/09 14:03:25;;;;;;;0.57;0.40;;;;;;;21.01;100.00;98954.31;15264577;19;20362;-77
2022/07/09 14:08:30;;;;;;;3.53;0.50;;;;;;;20.36;100.00;98990.63;15271244;19;20015;-77
2022/07/09 14:13:36;;;;;;;3.45;0.50;;;;;;;18.64;100.00;99008.75;15276033;19;20037;-77
2022/07/09 14:18:44;;;;;;;0.63;0.40;;;;;;;17.64;100.00;99018.72;15272705;19;20014;-77
2022/07/09 14:23:50;;;;;;;0.90;0.40;;;;;;;17.52;100.00;99013.78;15269637;19;20014;-76
2022/07/09 14:28:55;;;;;;;0.77;0.50;;;;;;;17.36;100.00;99011.25;15271625;19;20022;-76
2022/07/09 14:34:03;;;;;;;1.50;0.40;;;;;;;17.14;100.00;99000.31;15267122;19;20030;-75
2022/07/09 14:39:09;;;;;;;0.60;0.40;;;;;;;17.08;100.00;98991.03;15274167;19;20415;-76
2022/07/09 14:44:14;;;;;;;0.30;0.30;;;;;;;17.20;100.00;98982.38;15269688;19;20023;-76
2022/07/09 14:49:22;;;;;;;0.43;0.40;;;;;;;17.36;100.00;98974.00;15271849;19;20034;-76
2022/07/09 14:54:27;;;;;;;0.82;0.40;;;;;;;17.46;100.00;98968.25;15279739;19;20022;-77
2022/07/09 14:59:32;;;;;;;1.35;0.43;;;;;;;17.54;100.00;98965.41;15265511;19;20383;-76
2022/07/09 15:04:40;;;;;;;1.65;0.50;;;;;;;17.60;100.00;98960.19;15272524;19;20036;-77
2022/07/09 15:09:45;;;;;;;1.50;0.50;;;;;;;18.22;100.00;98949.69;15263612;19;20735;-76
2022/07/09 15:14:50;;;;;;;2.58;0.40;;;;;;;18.36;100.00;98950.59;15272389;19;20007;-76
2022/07/09 15:19:58;;;;;;;1.13;0.40;;;;;;;18.92;100.00;98930.56;15271615;19;20013;-77
2022/07/09 15:25:04;;;;;;;1.92;0.40;;;;;;;19.43;100.00;98917.53;15271471;19;20499;-77
2022/07/09 15:30:11;;;;;;;1.13;0.63;;;;;;;20.04;100.00;98915.75;15265642;19;20487;-77
2022/07/09 15:35:19;;;;;;;0.75;0.50;;;;;;;20.41;100.00;98916.09;15268824;19;20567;-78
2022/07/09 15:40:25;;;;;;;0.55;0.45;;;;;;;20.82;100.00;98904.03;15264344;19;20018;-76
2022/07/09 15:45:31;;;;;;;1.48;0.40;;;;;;;21.02;100.00;98897.63;15272715;19;20039;-77
2022/07/09 15:50:39;;;;;;;0.63;0.28;;;;;;;21.39;100.00;98900.59;15271883;19;20368;-77
2022/07/09 15:55:44;;;;;;;1.48;0.40;;;;;;;21.71;100.00;98884.16;15290386;19;20018;-78
2022/07/09 16:00:50;;;;;;;0.70;0.30;;;;;;;21.75;100.00;98879.09;15336981;19;20010;-77
2022/07/09 16:05:58;;;;;;;0.73;0.30;;;;;;;21.90;100.00;98876.00;15268805;19;20018;-77
2022/07/09 16:16:27;;;;;;;0.85;0.30;;;;;;;22.20;100.00;98854.22;15265056;19;20014;-76
2022/07/09 16:21:35;;;;;;;1.58;0.40;;;;;;;22.39;100.00;98854.22;15263782;19;20013;-77
2022/07/09 16:26:40;;;;;;;1.15;0.35;;;;;;;22.45;100.00;98843.19;15266314;19;20026;-77
2022/07/09 16:31:46;;;;;;;0.35;0.30;;;;;;;22.43;100.00;98836.25;15266051;19;20760;-77
2022/07/09 16:36:54;;;;;;;1.70;0.30;;;;;;;22.34;96.82;98854.91;15260551;19;20102;-77
2022/07/09 16:41:59;;;;;;;3.75;0.40;;;;;;;22.33;100.00;98836.75;15271378;19;20038;-77
2022/07/09 16:47:09;;;;;;;0.30;0.30;;;;;;;22.32;99.24;98826.84;15280789;19;20452;-77
2022/07/09 16:52:16;;;;;;;0.80;0.40;;;;;;;21.96;100.00;98836.69;15280455;19;20014;-77
2022/07/09 16:57:22;;;;;;;3.10;0.32;;;;;;;21.59;100.00;98850.25;15279922;19;20015;-77
2022/07/09 17:02:27;;;;;;;0.30;0.17;;;;;;;21.13;100.00;98842.16;15279811;19;20050;-77
2022/07/09 17:07:35;;;;;;;1.73;0.40;;;;;;;20.87;100.00;98827.56;15271606;19;20349;-76
2022/07/09 17:12:41;;;;;;;0.73;0.30;;;;;;;20.86;100.00;98831.34;15282003;19;20023;-76
2022/07/09 17:17:46;;;;;;;0.55;0.40;;;;;;;21.11;100.00;98822.34;15278805;19;20014;-76
2022/07/09 17:22:55;;;;;;;0.65;0.32;;;;;;;21.03;100.00;98820.72;15282602;19;20010;-74
2022/07/09 17:28:00;;;;;;;0.38;0.30;;;;;;;20.82;100.00;98835.56;15278492;19;20835;-76
2022/07/09 17:33:05;;;;;;;0.98;0.40;;;;;;;20.51;100.00;98842.63;15286167;19;20126;-75
2022/07/09 17:38:13;;;;;;;1.20;0.47;;;;;;;20.26;100.00;98835.13;15277324;19;20018;-75
2022/07/09 17:43:19;;;;;;;0.50;0.35;;;;;;;19.76;100.00;98851.13;15279213;19;20027;-74
2022/07/09 17:48:26;;;;;;;1.33;0.50;;;;;;;19.49;100.00;98854.72;15281371;19;20037;-75
2022/07/09 17:53:35;;;;;;;2.55;0.50;;;;;;;19.27;100.00;98854.03;15286765;19;20018;-75
2022/07/09 17:58:40;;;;;;;3.38;0.77;;;;;;;19.07;100.00;98860.31;15286416;19;20347;-75
2022/07/09 18:03:45;;;;;;;1.00;0.38;;;;;;;18.75;100.00;98883.69;15297816;19;20030;-75
2022/07/09 18:08:53;;;;;;;1.75;0.40;;;;;;;18.46;100.00;98872.00;15298683;19;20351;-74
2022/07/09 18:13:58;;;;;;;0.60;0.35;;;;;;;18.22;100.00;98876.91;15282001;19;20281;-77
2022/07/09 18:19:03;;;;;;;0.93;0.30;;;;;;;17.91;100.00;98885.44;15280718;19;20014;-77
2022/07/09 18:24:11;;;;;;;0.93;0.40;;;;;;;17.63;100.00;98892.56;15282192;19;20020;-76
2022/07/09 18:29:19;;;;;;;0.60;0.40;;;;;;;17.55;100.00;98890.81;15284041;19;20558;-75
2022/07/09 18:34:24;;;;;;;0.65;0.50;;;;;;;17.46;100.00;98877.50;15284331;19;20380;-75
2022/07/09 18:39:32;;;;;;;1.35;0.40;;;;;;;17.39;100.00;98872.84;15283704;19;20082;-75
2022/07/09 18:44:42;;;;;;;0.30;0.30;;;;;;;17.36;100.00;98870.50;15275333;19;20117;-75
2022/07/09 18:49:47;;;;;;;0.93;0.40;;;;;;;17.29;100.00;98869.56;15281549;19;20011;-75
2022/07/09 18:54:54;;;;;;;0.50;0.40;;;;;;;17.32;100.00;98858.31;15278820;19;20802;-75
2022/07/09 19:00:07;;;;;;;0.45;0.30;;;;;;;17.34;100.00;98858.94;15285596;19;20014;-75
2022/07/09 19:05:13;;;;;;;0.32;0.32;;;;;;;17.36;100.00;98859.59;15273503;19;20022;-76
2022/07/09 19:10:20;;;;;;;1.48;0.47;;;;;;;17.42;100.00;98863.44;15281181;19;20045;-73
2022/07/09 19:15:25;;;;;;;0.50;0.30;;;;;;;17.45;100.00;98862.19;15276930;19;20030;-74
2022/07/09 19:20:30;;;;;;;2.50;0.45;;;;;;;17.45;100.00;98854.88;15283062;19;20035;-79
2022/07/09 19:25:38;;;;;;;0.80;0.38;;;;;;;17.47;100.00;98860.13;15279996;19;20010;-76
2022/07/09 19:36:02;;;;;;;0.57;0.50;;;;;;;17.17;100.00;98904.66;15272823;19;20335;-77
2022/07/09 19:41:11;;;;;;;1.23;0.80;;;;;;;16.72;100.00;98929.19;15274520;19;20011;-74
2022/07/09 19:46:16;;;;;;;2.20;0.73;;;;;;;16.21;100.00;98943.50;15278801;19;20497;-77
2022/07/09 19:51:24;;;;;;;1.30;0.75;;;;;;;16.12;100.00;98940.03;15286794;19;20007;-74
2022/07/09 19:56:32;;;;;;;1.23;0.70;;;;;;;16.04;100.00;98931.97;15334062;19;20030;-77
2022/07/09 20:01:59;;;;;;;1.55;0.70;;;;;;;16.01;100.00;98930.47;15285520;19;20010;-76
2022/07/09 20:07:07;;;;;;;1.05;0.70;;;;;;;15.99;100.00;98926.25;15285461;19;20031;-76
2022/07/09 20:12:15;;;;;;;0.98;0.70;;;;;;;15.99;100.00;98929.78;15262169;19;20018;-78
2022/07/09 20:17:24;;;;;;;0.95;0.70;;;;;;;15.98;100.00;98928.09;15268625;19;20022;-76
2022/07/09 20:22:29;;;;;;;3.83;0.73;;;;;;;15.92;100.00;98938.84;15263745;19;20015;-77
2022/07/09 20:27:37;;;;;;;1.65;0.80;;;;;;;15.91;100.00;98954.34;15259374;19;20014;-77
2022/07/09 20:32:42;;;;;;;1.20;0.77;;;;;;;15.90;100.00;98965.38;15264953;19;20017;-77
2022/07/09 20:37:48;;;;;;;2.00;0.75;;;;;;;15.77;100.00;98977.66;15261213;19;20053;-76
2022/07/09 20:42:56;;;;;;;2.00;1.00;;;;;;;15.58;100.00;99008.88;15264499;19;20011;-76
2022/07/09 20:48:01;;;;;;;3.55;1.02;;;;;;;15.31;100.00;99024.63;15261825;19;20026;-74
2022/07/09 20:53:07;;;;;;;1.52;1.13;;;;;;;15.21;100.00;99018.56;15260459;19;20384;-73
2022/07/09 20:58:15;;;;;;;2.47;1.20;;;;;;;15.14;100.00;99032.00;15264536;19;20079;-74
2022/07/09 21:03:20;;;;;;;2.10;1.20;;;;;;;15.09;100.00;99035.25;15259328;19;20035;-75
2022/07/09 21:08:25;;;;;;;1.73;0.95;;;;;;;14.98;100.00;99041.06;15263974;19;20046;-73
2022/07/09 21:13:33;;;;;;;1.70;1.08;;;;;;;14.99;100.00;99029.19;15270148;19;20007;-75
2022/07/09 21:18:51;;;;;;;1.30;0.90;;;;;;;15.08;100.00;99017.25;15265141;19;20018;-74
2022/07/09 21:23:56;;;;;;;2.08;0.70;;;;;;;15.12;100.00;99016.88;15262718;19;20657;-75
2022/07/09 21:29:03;;;;;;;5.75;1.00;;;;;;;15.16;100.00;99012.81;15283374;19;20018;-75
2022/07/09 21:34:08;;;;;;;3.33;0.90;;;;;;;15.17;100.00;99014.50;15273963;19;20018;-76
2022/07/09 21:39:16;;;;;;;3.05;0.90;;;;;;;15.07;100.00;99029.13;15279062;19;20050;-76
2022/07/09 21:44:24;;;;;;;5.15;1.27;;;;;;;15.02;100.00;99008.97;15279523;19;20095;-74
2022/07/09 21:49:29;;;;;;;5.03;1.02;;;;;;;14.90;100.00;99014.78;15287084;19;20006;-76
2022/07/09 21:54:34;;;;;;;3.15;0.80;;;;;;;14.85;100.00;99013.63;15288359;19;20014;-77
2022/07/09 21:59:42;;;;;;;5.35;1.00;;;;;;;14.84;100.00;99022.78;15282524;19;20014;-77
2022/07/09 22:04:47;;;;;;;4.75;1.10;;;;;;;14.79;100.00;99015.16;15279898;19;20423;-74
2022/07/09 22:09:52;;;;;;;2.20;0.80;;;;;;;14.75;100.00;99016.53;15283308;19;20022;-74
2022/07/09 22:15:00;;;;;;;3.60;0.90;;;;;;;14.73;100.00;99019.41;15288860;19;20010;-75
2022/07/09 22:20:06;;;;;;;3.28;0.90;;;;;;;14.62;100.00;99031.44;15294980;19;20010;-80
2022/07/09 22:25:13;;;;;;;2.47;0.85;;;;;;;14.59;100.00;99018.22;15292819;19;20007;-75
2022/07/09 22:30:28;;;;;;;3.50;1.00;;;;;;;14.57;100.00;99027.53;15281873;19;20038;-80
2022/07/09 22:35:33;;;;;;;4.15;1.10;;;;;;;14.40;100.00;99021.31;15287354;19;20021;-75
2022/07/09 22:40:38;;;;;;;6.30;0.98;;;;;;;14.22;100.00;99014.22;15280175;19;20028;-75
2022/07/09 22:45:45;;;;;;;5.93;1.27;;;;;;;13.97;100.00;99010.63;15291118;19;20014;-75
2022/07/09 22:50:51;;;;;;;4.35;1.10;;;;;;;13.87;100.00;99027.91;15295154;19;20749;-80
2022/07/09 22:55:56;;;;;;;5.05;0.98;;;;;;;13.75;100.00;99007.59;15298144;19;20368;-77
2022/07/09 23:01:06;;;;;;;3.13;1.02;;;;;;;13.72;100.00;99010.63;15278486;19;20003;-75
2022/07/09 23:06:12;;;;;;;4.13;1.08;;;;;;;13.61;100.00;99016.34;15277841;19;20098;-75
2022/07/09 23:11:16;;;;;;;2.80;0.85;;;;;;;13.53;100.00;99009.91;15279896;19;20018;-79
2022/07/09 23:16:27;;;;;;;3.67;1.00;;;;;;;13.37;100.00;99010.69;15292985;19;20063;-78
2022/07/09 23:21:33;;;;;;;3.17;0.90;;;;;;;13.25;100.00;99012.84;15295730;19;20006;-74
2022/07/09 23:26:42;;;;;;;4.05;0.90;;;;;;;13.08;100.00;99016.53;15298559;19;20015;-75
2022/07/09 23:31:50;;;;;;;2.95;0.90;;;;;;;12.92;100.00;99017.28;15331868;19;20019;-78
2022/07/09 23:36:54;;;;;;;4.22;1.00;;;;;;;12.85;100.00;99003.56;15300431;19;20034;-76
2022/07/09 23:42:03;;;;;;;4.13;0.82;;;;;;;12.73;100.00;98997.59;15291775;19;20009;-75
2022/07/09 23:47:11;;;;;;;4.50;1.10;;;;;;;12.60;100.00;99006.16;15285379;19;20038;-76
2022/07/09 23:52:19;;;;;;;4.65;0.90;;;;;;;12.56;100.00;98988.53;15285445;19;20674;-77
2022/07/09 23:57:25;;;;;;;4.32;1.02;;;;;;;12.52;100.00;98992.59;15283663;19;20021;-76
